FAMM/MBD METAR and TAF weather

Enter ICAO airport designator
Station Type Date Time Source
FAMM METAR 2019/07/18 11:00 UTC NOAA

FAMM 181100Z 17002KT CAVOK 24/M05 Q1026 NOSIG


Station Type Date Time Source
FAMM Decoded METAR 2019/07/18 11:00 UTC NOAA

Mafikeng Intl. Ad, South Africa (FAMM) 25-47S 025-32E 1300M
Jul 18, 2019 - 07:00 AM EDT / 2019.07.18 1100 UTC
Wind: from the S (170 degrees) at 2 MPH (2 KT):0
Visibility: greater than 7 mile(s):0
Temperature: 75 F (24 C)
Dew Point: 23 F (-5 C)
Relative Humidity: 14%
Pressure (altimeter): 30.30 in. Hg (1026 hPa)
ob: FAMM 181100Z 17002KT CAVOK 24/M05 Q1026 NOSIG
cycle: 11

Station Type Date Time Source
FAMM TAF 2019/01/01 10:00 UTC NOAA

TAF FAMM 010900Z 0110/0118 04008KT 9999 BKN015
BECMG 0111/0113 34010KT BKN025 TX25/0113Z TN22/0118Z

Example: see airport list